createdAt,value
2022-08-22T00:02:09.207Z,1.30
2022-08-22T00:03:02.617Z,1.25
2022-08-22T00:03:09.870Z,1.50
2022-08-22T00:05:07.844Z,1.50
2022-08-22T00:07:43.755Z,1.40
2022-08-22T00:10:27.986Z,1.60
2022-08-22T00:13:13.376Z,1.60
2022-08-22T00:15:52.656Z,1.50
2022-08-22T00:19:08.157Z,1.33
2022-08-22T00:21:44.485Z,1.42
2022-08-22T00:24:20.731Z,1.17
2022-08-22T00:26:54.484Z,1.33
2022-08-22T00:29:33.396Z,1.38
2022-08-22T00:32:29.552Z,1.40
2022-08-22T00:35:15.466Z,1.10
2022-08-22T00:37:52.660Z,1.35
2022-08-22T00:40:54.540Z,1.13
2022-08-22T00:44:12.796Z,1.10
2022-08-22T00:47:19.820Z,1.10
2022-08-22T00:50:50.127Z,1.27
2022-08-22T00:53:43.201Z,1.27
2022-08-22T00:56:22.676Z,1.80
2022-08-22T00:59:23.101Z,1.55
2022-08-22T01:02:14.390Z,1.52
2022-08-22T01:04:50.021Z,1.50
2022-08-22T01:10:45.606Z,2.05
2022-08-22T01:13:55.939Z,1.23
2022-08-22T01:16:48.108Z,1.60
2022-08-22T01:19:27.091Z,1.40
2022-08-22T01:22:19.557Z,1.27
2022-08-22T01:25:25.835Z,1.17
2022-08-22T01:28:31.144Z,1.45
2022-08-22T01:31:36.878Z,1.25
2022-08-22T01:34:32.011Z,1.27
2022-08-22T01:37:28.981Z,1.10
2022-08-22T01:44:17.242Z,1.48
2022-08-22T01:47:02.347Z,1.38
2022-08-22T01:49:35.359Z,1.50
2022-08-22T01:52:53.584Z,1.50
2022-08-22T01:59:10.977Z,1.23
2022-08-22T02:02:25.228Z,1.33
2022-08-22T02:05:07.095Z,1.70
2022-08-22T02:07:48.939Z,1.50
2022-08-22T02:10:38.800Z,1.50
2022-08-22T02:13:33.113Z,1.88
2022-08-22T02:16:23.291Z,1.50
2022-08-22T02:19:05.251Z,1.65
2022-08-22T02:25:10.683Z,1.75
2022-08-22T02:28:00.593Z,1.27
2022-08-22T02:31:03.410Z,1.20
2022-08-22T02:33:49.221Z,1.50
2022-08-22T02:36:46.902Z,1.40
2022-08-22T02:39:43.543Z,1.45
2022-08-22T02:42:37.868Z,1.40
2022-08-22T02:45:45.987Z,1.60
2022-08-22T02:48:19.688Z,1.55
2022-08-22T02:50:49.213Z,1.35
2022-08-22T02:53:38.150Z,1.40
2022-08-22T02:56:20.582Z,1.55
2022-08-22T02:59:37.627Z,1.42
2022-08-22T03:02:35.880Z,1.33
2022-08-22T03:05:37.118Z,1.50
2022-08-22T03:08:07.476Z,1.40
2022-08-22T03:14:38.947Z,1.80
2022-08-22T03:18:02.383Z,1.50
2022-08-22T03:20:58.940Z,1.42
2022-08-22T03:27:01.080Z,1.70
2022-08-22T03:29:38.484Z,1.60
2022-08-22T03:32:19.740Z,1.90
2022-08-22T03:35:05.076Z,1.60
2022-08-22T03:37:46.492Z,1.95
2022-08-22T03:40:19.889Z,1.48
2022-08-22T03:43:02.587Z,1.58
2022-08-22T03:46:01.397Z,1.70
2022-08-22T03:51:46.549Z,1.50
2022-08-22T03:54:44.573Z,1.73
2022-08-22T04:01:11.408Z,1.95
2022-08-22T04:04:15.627Z,1.58
2022-08-22T04:07:31.638Z,1.50
2022-08-22T04:10:32.708Z,1.70
2022-08-22T04:13:24.904Z,1.50
2022-08-22T04:16:01.004Z,1.58
2022-08-22T04:18:52.852Z,1.60
2022-08-22T04:21:32.435Z,1.67
2022-08-22T04:24:06.526Z,1.40
2022-08-22T04:26:58.101Z,1.52
2022-08-22T04:29:55.227Z,2.00
2022-08-22T04:32:44.229Z,1.60
2022-08-22T04:35:36.496Z,1.45
2022-08-22T04:38:22.264Z,1.90
2022-08-22T04:40:54.162Z,1.60
2022-08-22T04:43:39.662Z,1.90
2022-08-22T04:46:16.740Z,1.50
2022-08-22T04:48:55.420Z,1.50
2022-08-22T04:51:33.493Z,1.25
2022-08-22T04:54:06.878Z,1.48
2022-08-22T04:56:46.865Z,1.70
2022-08-22T04:59:17.871Z,1.50
2022-08-22T05:01:56.269Z,1.63
2022-08-22T05:04:25.396Z,1.50
2022-08-22T05:07:27.208Z,1.30
2022-08-22T05:10:09.287Z,1.45
2022-08-22T05:13:18.279Z,1.70
2022-08-22T05:16:05.476Z,1.52
2022-08-22T05:22:36.954Z,1.50
2022-08-22T05:25:11.637Z,1.52
2022-08-22T05:28:11.917Z,1.05
2022-08-22T05:30:40.050Z,1.30
2022-08-22T05:33:45.052Z,1.17
2022-08-22T05:36:25.824Z,1.50
2022-08-22T05:39:00.334Z,1.60
2022-08-22T05:41:32.647Z,1.50
2022-08-22T05:44:00.249Z,1.20
2022-08-22T05:46:43.430Z,1.35
2022-08-22T05:49:39.332Z,1.10
2022-08-22T05:52:06.803Z,1.13
2022-08-22T05:54:54.281Z,1.00
2022-08-22T05:57:40.178Z,1.25
2022-08-22T06:00:16.522Z,1.25
2022-08-22T06:03:26.447Z,1.08
2022-08-22T06:05:59.467Z,1.30
2022-08-22T06:08:41.781Z,1.48
2022-08-22T06:11:26.396Z,1.02
2022-08-22T06:14:24.816Z,1.30
2022-08-22T06:17:20.438Z,1.27
2022-08-22T06:19:50.759Z,1.50
2022-08-22T06:22:25.639Z,1.73
2022-08-22T06:25:05.839Z,1.25
2022-08-22T06:27:34.555Z,1.40
2022-08-22T06:30:04.009Z,1.50
2022-08-22T06:36:31.833Z,1.63
2022-08-22T06:39:06.344Z,1.45
2022-08-22T06:42:02.847Z,2.08
2022-08-22T06:44:37.103Z,1.92
2022-08-22T06:50:31.895Z,1.80
2022-08-22T06:53:11.222Z,2.15
2022-08-22T06:55:42.100Z,3.22
2022-08-22T06:58:19.154Z,1.55
2022-08-22T07:00:51.627Z,1.58
2022-08-22T07:03:44.587Z,1.73
2022-08-22T07:09:27.774Z,1.20
2022-08-22T07:11:59.329Z,1.17
2022-08-22T07:14:49.548Z,1.40
2022-08-22T07:17:40.517Z,1.45
2022-08-22T07:20:41.092Z,1.30
2022-08-22T07:23:23.081Z,1.65
2022-08-22T07:25:59.185Z,1.50
2022-08-22T07:28:57.841Z,1.90
2022-08-22T07:31:41.919Z,1.60
2022-08-22T07:34:27.812Z,1.63
2022-08-22T07:37:11.954Z,1.60
2022-08-22T07:39:58.044Z,1.17
2022-08-22T07:42:51.864Z,1.48
2022-08-22T07:45:51.191Z,1.23
2022-08-22T07:48:26.611Z,1.15
2022-08-22T07:51:24.898Z,1.35
2022-08-22T07:57:33.912Z,1.23
2022-08-22T08:00:11.123Z,1.00
2022-08-22T08:02:56.210Z,1.13
2022-08-22T08:05:49.240Z,0.82
2022-08-22T08:11:43.735Z,0.80
2022-08-22T08:14:15.343Z,0.90
2022-08-22T08:17:06.052Z,0.85
2022-08-22T08:19:38.201Z,0.80
2022-08-22T08:22:07.959Z,1.48
2022-08-22T08:24:45.813Z,0.82
2022-08-22T08:28:22.931Z,0.60
2022-08-22T08:33:28.171Z,0.80
2022-08-22T08:36:48.991Z,0.70
2022-08-22T08:39:49.909Z,0.90
2022-08-22T08:42:23.084Z,0.90
2022-08-22T08:45:22.533Z,0.70
2022-08-22T08:48:03.813Z,0.52
2022-08-22T08:50:37.513Z,0.60
2022-08-22T08:53:31.342Z,0.68
2022-08-22T08:56:30.715Z,0.63
2022-08-22T09:02:51.345Z,0.60
2022-08-22T09:05:43.248Z,0.88
2022-08-22T09:08:29.057Z,0.65
2022-08-22T09:11:12.006Z,0.90
2022-08-22T09:16:46.223Z,1.45
2022-08-22T09:19:25.263Z,0.73
2022-08-22T09:22:30.033Z,0.80
2022-08-22T09:28:20.660Z,0.70
2022-08-22T09:31:03.200Z,0.60
2022-08-22T09:34:12.194Z,0.93
2022-08-22T09:36:48.260Z,0.70
2022-08-22T09:39:27.719Z,0.70
2022-08-22T09:42:36.997Z,0.70
2022-08-22T09:45:55.043Z,0.60
2022-08-22T09:48:38.786Z,0.77
2022-08-22T09:51:31.672Z,0.85
2022-08-22T09:54:44.785Z,0.70
2022-08-22T09:57:55.376Z,0.70
2022-08-22T10:00:54.687Z,0.80
2022-08-22T10:04:00.448Z,0.70
2022-08-22T10:10:56.569Z,0.82
2022-08-22T10:13:37.416Z,0.85
2022-08-22T10:16:26.475Z,0.80
